createdAt,value
2023-01-21T00:01:22.248Z,1.08
2023-01-21T00:03:50.245Z,1.06
2023-01-21T00:06:20.098Z,1.08
2023-01-21T00:08:47.676Z,1.04
2023-01-21T00:11:16.717Z,1.03
2023-01-21T00:13:45.738Z,0.99
2023-01-21T00:16:15.863Z,0.99
2023-01-21T00:18:43.662Z,0.97
2023-01-21T00:21:11.475Z,0.96
2023-01-21T00:23:39.108Z,0.92
2023-01-21T00:26:08.296Z,0.91
2023-01-21T00:28:37.711Z,0.89
2023-01-21T00:31:10.586Z,0.82
2023-01-21T00:33:39.060Z,0.84
2023-01-21T00:36:12.058Z,0.81
2023-01-21T00:38:40.036Z,0.83
2023-01-21T00:41:10.788Z,0.85
2023-01-21T00:43:39.432Z,0.87
2023-01-21T00:46:07.920Z,0.87
2023-01-21T00:48:38.332Z,0.87
2023-01-21T00:51:06.150Z,0.87
2023-01-21T00:53:38.291Z,0.88
2023-01-21T00:56:08.882Z,0.89
2023-01-21T00:58:40.509Z,0.87
2023-01-21T01:01:10.963Z,0.90
2023-01-21T01:03:39.744Z,0.93
2023-01-21T01:06:11.429Z,0.94
2023-01-21T01:08:39.508Z,0.94
2023-01-21T01:11:07.573Z,0.96
2023-01-21T01:13:36.740Z,0.92
2023-01-21T01:16:05.610Z,0.93
2023-01-21T01:18:38.737Z,0.91
2023-01-21T01:21:07.124Z,0.91
2023-01-21T01:23:34.732Z,0.93
2023-01-21T01:26:04.994Z,0.93
2023-01-21T01:28:33.935Z,0.93
2023-01-21T01:31:05.888Z,0.91
2023-01-21T01:33:34.148Z,0.89
2023-01-21T01:36:05.138Z,0.86
2023-01-21T01:38:35.559Z,0.85
2023-01-21T01:41:09.454Z,0.83
2023-01-21T01:44:06.120Z,0.84
2023-01-21T01:46:37.444Z,0.83
2023-01-21T01:49:18.247Z,0.84
2023-01-21T01:51:57.281Z,0.82
2023-01-21T01:54:42.629Z,0.80
2023-01-21T01:57:14.013Z,0.79
2023-01-21T01:59:43.658Z,0.79
2023-01-21T02:02:15.613Z,0.80
2023-01-21T02:04:48.883Z,0.82
2023-01-21T02:07:18.236Z,0.81
2023-01-21T02:09:46.006Z,0.83
2023-01-21T02:12:18.077Z,0.81
2023-01-21T02:14:48.287Z,0.81
2023-01-21T02:17:48.053Z,0.80
2023-01-21T02:20:40.220Z,0.86
2023-01-21T02:23:11.207Z,0.87
2023-01-21T02:26:06.571Z,0.88
2023-01-21T02:29:11.372Z,0.90
2023-01-21T02:32:00.267Z,0.94
2023-01-21T02:34:33.543Z,0.93
2023-01-21T02:37:11.601Z,0.93
2023-01-21T02:39:45.125Z,0.97
2023-01-21T02:42:33.839Z,0.99
2023-01-21T02:45:34.880Z,1.01
2023-01-21T02:48:08.973Z,1.03
2023-01-21T02:50:43.597Z,1.00
2023-01-21T02:53:30.159Z,1.02
2023-01-21T02:56:04.312Z,1.04
2023-01-21T02:58:39.376Z,1.03
2023-01-21T03:01:32.743Z,1.06
2023-01-21T03:04:34.074Z,1.06
2023-01-21T03:07:16.476Z,1.03
2023-01-21T03:09:44.191Z,0.97
2023-01-21T03:12:38.607Z,0.95
2023-01-21T03:15:40.418Z,0.93
2023-01-21T03:18:37.345Z,0.96
2023-01-21T03:21:24.781Z,0.99
2023-01-21T03:23:54.466Z,0.89
2023-01-21T03:26:30.071Z,0.91
2023-01-21T03:29:07.180Z,0.94
2023-01-21T03:31:39.153Z,0.97
2023-01-21T03:34:11.066Z,1.00
2023-01-21T03:36:42.790Z,1.00
2023-01-21T03:39:39.547Z,0.98
2023-01-21T03:42:08.745Z,0.99
2023-01-21T03:44:37.041Z,0.98
2023-01-21T03:47:33.819Z,1.01
2023-01-21T03:50:26.462Z,0.99
2023-01-21T03:52:54.393Z,0.99
2023-01-21T03:55:22.823Z,0.98
2023-01-21T03:57:50.468Z,0.98
2023-01-21T04:00:18.951Z,0.95
2023-01-21T04:02:46.672Z,0.98
2023-01-21T04:05:14.568Z,1.01
2023-01-21T04:07:43.668Z,1.02
2023-01-21T04:10:12.068Z,1.04
2023-01-21T04:12:42.749Z,1.06
2023-01-21T04:15:13.151Z,1.00
2023-01-21T04:17:43.298Z,0.97
2023-01-21T04:20:11.896Z,1.01
2023-01-21T04:22:39.474Z,1.01
2023-01-21T04:25:07.420Z,0.96
2023-01-21T04:27:34.972Z,1.01
2023-01-21T04:30:05.379Z,1.02
2023-01-21T04:32:33.509Z,1.00
2023-01-21T04:35:01.157Z,1.02
2023-01-21T04:37:33.431Z,1.03
2023-01-21T04:40:01.027Z,1.01
2023-01-21T04:42:31.241Z,1.04
2023-01-21T04:44:58.852Z,1.05
2023-01-21T04:47:26.438Z,1.08
2023-01-21T04:49:54.042Z,1.09
2023-01-21T04:52:21.872Z,1.12
2023-01-21T04:54:49.498Z,1.10
2023-01-21T04:57:19.440Z,1.08
2023-01-21T04:59:47.027Z,1.09
2023-01-21T05:02:14.765Z,1.04
2023-01-21T05:04:42.369Z,0.99
2023-01-21T05:07:11.719Z,0.94
2023-01-21T05:09:39.350Z,0.84
2023-01-21T05:12:09.750Z,0.88
2023-01-21T05:14:39.986Z,0.91
2023-01-21T05:17:07.753Z,0.93
2023-01-21T05:19:35.431Z,0.93
2023-01-21T05:22:03.131Z,0.98
2023-01-21T05:24:30.687Z,0.97
2023-01-21T05:26:58.287Z,0.96
2023-01-21T05:29:25.865Z,0.94
2023-01-21T05:31:53.546Z,0.94
2023-01-21T05:34:25.906Z,0.90
2023-01-21T05:36:53.561Z,0.92
2023-01-21T05:39:22.265Z,0.95
2023-01-21T05:41:49.853Z,0.99
2023-01-21T05:44:17.859Z,1.01
2023-01-21T05:46:45.575Z,1.03
2023-01-21T05:49:13.190Z,1.06
2023-01-21T05:51:40.838Z,1.04
2023-01-21T05:54:09.250Z,1.02
2023-01-21T05:56:36.861Z,1.09
2023-01-21T05:59:05.179Z,1.08
2023-01-21T06:01:32.770Z,1.06
2023-01-21T06:04:02.831Z,1.06
2023-01-21T06:06:30.445Z,1.00
2023-01-21T06:09:00.516Z,0.99
2023-01-21T06:11:28.603Z,1.00
2023-01-21T06:13:56.203Z,0.96
2023-01-21T06:16:23.839Z,0.93
2023-01-21T06:18:51.440Z,0.92
2023-01-21T06:21:19.022Z,0.93
2023-01-21T06:23:49.099Z,0.94
2023-01-21T06:26:16.703Z,0.88
2023-01-21T06:28:44.370Z,0.91
2023-01-21T06:31:12.021Z,0.87
2023-01-21T06:33:39.654Z,0.98
2023-01-21T06:36:08.750Z,1.01
2023-01-21T06:38:37.348Z,1.03
2023-01-21T06:41:05.100Z,1.05
2023-01-21T06:43:32.724Z,1.08
2023-01-21T06:46:00.305Z,1.11
2023-01-21T06:48:28.902Z,1.13
2023-01-21T06:50:56.532Z,1.14
2023-01-21T06:53:24.194Z,1.14
2023-01-21T06:55:51.865Z,1.18
2023-01-21T06:58:19.469Z,1.22
2023-01-21T07:00:47.105Z,1.18
2023-01-21T07:03:17.182Z,1.18
2023-01-21T07:05:46.995Z,1.21
2023-01-21T07:08:15.595Z,1.22
2023-01-21T07:10:44.318Z,1.23
2023-01-21T07:13:15.563Z,1.23
2023-01-21T07:15:44.166Z,1.21
2023-01-21T07:18:11.807Z,1.23
2023-01-21T07:20:40.935Z,1.22
2023-01-21T07:23:08.541Z,1.28
2023-01-21T07:25:37.443Z,1.28
2023-01-21T07:28:05.135Z,1.34
2023-01-21T07:30:33.750Z,1.37
2023-01-21T07:33:08.593Z,1.38
2023-01-21T07:35:36.656Z,1.39
2023-01-21T07:38:06.562Z,1.39
2023-01-21T07:40:37.048Z,1.41
2023-01-21T07:43:04.928Z,1.46
2023-01-21T07:45:32.564Z,1.45
2023-01-21T07:48:00.211Z,1.49
2023-01-21T07:50:30.422Z,1.50
2023-01-21T07:52:59.625Z,1.52
2023-01-21T07:55:27.968Z,1.51
2023-01-21T07:58:01.430Z,1.52
2023-01-21T08:00:29.334Z,1.56
2023-01-21T08:02:58.975Z,1.60
2023-01-21T08:05:28.882Z,1.61
2023-01-21T08:07:58.565Z,1.59
2023-01-21T08:10:27.694Z,1.55
2023-01-21T08:12:55.582Z,1.57
2023-01-21T08:15:23.158Z,1.55
2023-01-21T08:17:50.800Z,1.54
2023-01-21T08:20:18.503Z,1.53
2023-01-21T08:22:47.417Z,1.54
2023-01-21T08:25:15.244Z,1.56
2023-01-21T08:27:43.076Z,1.61
2023-01-21T08:30:11.325Z,1.64
2023-01-21T08:32:39.034Z,1.71
2023-01-21T08:35:07.276Z,1.70
2023-01-21T08:37:37.127Z,1.71
2023-01-21T08:40:05.067Z,1.77
2023-01-21T08:42:32.671Z,1.81
2023-01-21T08:45:02.559Z,1.84
2023-01-21T08:47:30.162Z,1.87
2023-01-21T08:49:57.774Z,1.90
2023-01-21T08:52:25.487Z,1.90
2023-01-21T08:54:54.132Z,1.94
2023-01-21T08:57:23.882Z,1.95
2023-01-21T08:59:51.714Z,2.02
2023-01-21T09:02:24.256Z,2.04
2023-01-21T09:04:51.848Z,2.03
2023-01-21T09:07:19.457Z,2.10
2023-01-21T09:09:48.791Z,2.11
2023-01-21T09:12:16.534Z,2.14
2023-01-21T09:14:46.581Z,2.26
2023-01-21T09:17:14.223Z,2.32
2023-01-21T09:19:42.064Z,2.40
2023-01-21T09:22:09.687Z,2.48
2023-01-21T09:24:37.295Z,2.57
2023-01-21T09:27:07.950Z,2.62
2023-01-21T09:29:35.665Z,2.56
2023-01-21T09:32:06.276Z,2.46
2023-01-21T09:34:35.745Z,2.32
2023-01-21T09:37:05.196Z,2.30
2023-01-21T09:39:35.317Z,2.21
2023-01-21T09:42:05.255Z,2.15
2023-01-21T09:44:37.840Z,2.12
2023-01-21T09:47:11.650Z,2.21
2023-01-21T09:49:43.211Z,2.30
2023-01-21T09:52:28.804Z,2.37
2023-01-21T09:54:59.793Z,2.50
2023-01-21T09:58:00.509Z,2.63
2023-01-21T10:00:45.039Z,2.55
2023-01-21T10:03:23.057Z,2.53
2023-01-21T10:05:53.719Z,2.59
2023-01-21T10:09:00.087Z,2.66
2023-01-21T10:12:05.432Z,2.70
2023-01-21T10:15:19.524Z,2.78
2023-01-21T10:18:05.949Z,2.78
2023-01-21T10:20:53.580Z,2.88
2023-01-21T10:23:34.394Z,2.97
2023-01-21T10:26:08.823Z,3.03
2023-01-21T10:28:41.850Z,2.99
2023-01-21T10:31:24.499Z,2.91
2023-01-21T10:33:54.371Z,2.93
2023-01-21T10:36:35.318Z,2.83
2023-01-21T10:39:21.439Z,2.75
2023-01-21T10:42:16.827Z,2.69
2023-01-21T10:44:56.320Z,2.63
2023-01-21T10:47:30.030Z,2.61
2023-01-21T10:50:25.552Z,2.60
2023-01-21T10:53:25.372Z,2.53
2023-01-21T10:56:09.383Z,2.52
2023-01-21T10:58:57.429Z,2.54
2023-01-21T11:01:38.870Z,2.60
2023-01-21T11:04:14.342Z,2.63
2023-01-21T11:06:42.076Z,2.64
2023-01-21T11:09:15.020Z,2.70
2023-01-21T11:11:43.037Z,2.75
2023-01-21T11:14:11.111Z,2.72
2023-01-21T11:16:47.663Z,2.80
2023-01-21T11:19:17.692Z,2.81
2023-01-21T11:22:19.143Z,2.91
2023-01-21T11:24:51.374Z,2.96
2023-01-21T11:27:20.870Z,3.00
2023-01-21T11:29:50.501Z,2.96
2023-01-21T11:32:20.899Z,2.97
2023-01-21T11:34:51.536Z,2.94
2023-01-21T11:37:24.794Z,3.00
2023-01-21T11:40:00.490Z,2.99
2023-01-21T11:42:31.162Z,2.99
2023-01-21T11:45:04.348Z,2.99
2023-01-21T11:47:40.896Z,3.05
2023-01-21T11:50:19.155Z,3.13
2023-01-21T11:52:47.224Z,3.12
2023-01-21T11:55:24.426Z,3.14
2023-01-21T11:57:57.157Z,3.36
2023-01-21T12:00:27.887Z,3.34
2023-01-21T12:03:02.275Z,3.46
2023-01-21T12:05:37.197Z,3.48
2023-01-21T12:08:07.188Z,3.38
2023-01-21T12:10:47.077Z,3.40
2023-01-21T12:13:40.557Z,3.42
2023-01-21T12:16:25.731Z,3.46
2023-01-21T12:19:16.302Z,3.35
2023-01-21T12:22:04.790Z,3.17
2023-01-21T12:24:50.085Z,3.14
2023-01-21T12:27:29.211Z,3.10
2023-01-21T12:30:02.833Z,3.15
2023-01-21T12:32:41.410Z,3.16
2023-01-21T12:35:23.220Z,3.22
2023-01-21T12:37:56.979Z,3.14
2023-01-21T12:40:49.165Z,3.04
2023-01-21T12:43:33.228Z,2.84
2023-01-21T12:46:20.749Z,2.78
2023-01-21T12:48:53.089Z,2.79
2023-01-21T12:51:30.168Z,2.76
2023-01-21T12:54:22.323Z,2.68
2023-01-21T12:57:07.169Z,2.71
2023-01-21T12:59:37.159Z,2.71
2023-01-21T13:02:23.783Z,2.78
2023-01-21T13:05:31.023Z,2.76
2023-01-21T13:08:31.233Z,2.84
2023-01-21T13:11:08.071Z,2.86
2023-01-21T13:13:41.987Z,2.78
2023-01-21T13:16:12.235Z,2.77
2023-01-21T13:18:44.316Z,2.76
2023-01-21T13:21:14.902Z,2.71
2023-01-21T13:23:57.215Z,2.65
2023-01-21T13:26:40.454Z,2.63
2023-01-21T13:30:19.232Z,2.62
2023-01-21T13:33:12.270Z,2.68
2023-01-21T13:35:53.275Z,2.63
2023-01-21T13:38:42.920Z,2.67
2023-01-21T13:41:34.988Z,2.66
2023-01-21T13:44:45.982Z,2.64
2023-01-21T13:47:29.714Z,2.58
2023-01-21T13:50:17.932Z,2.62
2023-01-21T13:53:18.455Z,2.56
2023-01-21T13:56:06.948Z,2.60
2023-01-21T13:58:50.463Z,2.65
2023-01-21T14:01:28.111Z,2.62
2023-01-21T14:04:15.478Z,2.78
2023-01-21T14:07:08.091Z,2.84
2023-01-21T14:09:46.105Z,2.78
2023-01-21T14:12:27.844Z,2.85
2023-01-21T14:15:13.233Z,2.91
2023-01-21T14:18:10.403Z,2.97
2023-01-21T14:21:15.376Z,2.96
2023-01-21T14:23:43.107Z,2.91
2023-01-21T14:26:36.632Z,2.74
2023-01-21T14:29:26.410Z,2.65
2023-01-21T14:32:04.144Z,2.62
2023-01-21T14:34:41.191Z,2.57
2023-01-21T14:37:12.498Z,2.56
2023-01-21T14:40:03.163Z,2.47
2023-01-21T14:42:42.789Z,2.39
2023-01-21T14:45:12.894Z,2.35
2023-01-21T14:47:40.520Z,2.33
2023-01-21T14:50:09.988Z,2.32
2023-01-21T14:52:46.084Z,2.28
2023-01-21T14:55:31.663Z,2.16
2023-01-21T14:58:01.845Z,2.11
2023-01-21T15:00:33.465Z,2.07
2023-01-21T15:03:19.746Z,2.09
2023-01-21T15:05:54.465Z,2.03
2023-01-21T15:08:29.303Z,2.03
2023-01-21T15:11:03.251Z,2.02
2023-01-21T15:13:33.859Z,1.98
2023-01-21T15:16:15.816Z,1.97
2023-01-21T15:18:50.896Z,1.92
2023-01-21T15:21:43.328Z,1.92
2023-01-21T15:24:19.788Z,1.85
2023-01-21T15:27:20.453Z,1.80
2023-01-21T15:29:58.455Z,1.83
2023-01-21T15:32:38.269Z,1.80
2023-01-21T15:35:30.513Z,1.80
2023-01-21T15:38:17.465Z,1.78
2023-01-21T15:40:55.338Z,1.77
2023-01-21T15:43:50.275Z,1.78
2023-01-21T15:46:40.983Z,1.78
2023-01-21T15:49:43.311Z,1.75
2023-01-21T15:52:57.206Z,1.65
2023-01-21T15:55:34.049Z,1.77
2023-01-21T15:58:07.747Z,1.80
2023-01-21T16:00:47.273Z,1.82
2023-01-21T16:03:37.613Z,1.84
2023-01-21T16:06:36.123Z,1.88
2023-01-21T16:09:25.176Z,1.87
2023-01-21T16:12:33.250Z,1.87
2023-01-21T16:15:19.668Z,1.89
2023-01-21T16:18:07.297Z,1.84
2023-01-21T16:20:35.632Z,1.81
2023-01-21T16:23:08.259Z,1.85
2023-01-21T16:25:50.020Z,1.83
2023-01-21T16:28:20.443Z,1.83
2023-01-21T16:30:57.451Z,1.84
2023-01-21T16:33:27.679Z,1.82
2023-01-21T16:35:58.279Z,1.87
2023-01-21T16:38:30.826Z,1.87
2023-01-21T16:41:08.667Z,1.87
2023-01-21T16:43:57.888Z,1.82
2023-01-21T16:46:37.362Z,1.80
2023-01-21T16:49:13.080Z,1.83
2023-01-21T16:51:45.407Z,1.81
2023-01-21T16:54:16.800Z,1.88
2023-01-21T16:56:52.274Z,1.83
2023-01-21T16:59:29.603Z,1.83
2023-01-21T17:01:59.659Z,1.80
2023-01-21T17:04:29.335Z,1.79
2023-01-21T17:06:57.749Z,1.76
2023-01-21T17:09:30.814Z,1.73
2023-01-21T17:12:06.031Z,1.75
2023-01-21T17:14:35.324Z,1.76
2023-01-21T17:17:07.154Z,1.76
2023-01-21T17:19:36.499Z,1.79
2023-01-21T17:22:14.661Z,1.81
2023-01-21T17:24:54.430Z,1.75
2023-01-21T17:27:26.392Z,1.72
2023-01-21T17:29:54.394Z,1.69
2023-01-21T17:32:32.392Z,1.65
2023-01-21T17:35:19.465Z,1.63
2023-01-21T17:37:59.893Z,1.60
2023-01-21T17:41:01.147Z,1.60
2023-01-21T17:46:04.723Z,1.57
2023-01-21T17:48:36.082Z,1.58
2023-01-21T17:51:31.587Z,1.59
2023-01-21T17:54:02.091Z,1.61
2023-01-21T17:56:53.762Z,1.63
2023-01-21T17:59:34.438Z,1.62
2023-01-21T18:02:10.635Z,1.63
2023-01-21T18:04:40.635Z,1.62
2023-01-21T18:07:21.933Z,1.62
2023-01-21T18:09:51.277Z,1.64
2023-01-21T18:12:19.607Z,1.65
2023-01-21T18:14:47.920Z,1.67
2023-01-21T18:17:23.683Z,1.64
2023-01-21T18:19:51.708Z,1.65
2023-01-21T18:22:31.900Z,1.67
2023-01-21T18:25:01.433Z,1.63
2023-01-21T18:27:29.205Z,1.69
2023-01-21T18:29:58.858Z,1.69
2023-01-21T18:32:28.955Z,1.71
2023-01-21T18:34:59.810Z,1.72
2023-01-21T18:37:29.771Z,1.70
2023-01-21T18:39:59.731Z,1.68
2023-01-21T18:42:27.589Z,1.69
2023-01-21T18:44:57.411Z,1.68
2023-01-21T18:47:25.145Z,1.69
2023-01-21T18:49:52.761Z,1.69
2023-01-21T18:52:22.056Z,1.69
2023-01-21T18:54:51.906Z,1.64
2023-01-21T18:57:22.585Z,1.66
2023-01-21T18:59:50.278Z,1.66
2023-01-21T19:02:20.355Z,1.67
2023-01-21T19:04:48.876Z,1.68
2023-01-21T19:07:25.519Z,1.69
2023-01-21T19:09:53.132Z,1.72
2023-01-21T19:12:24.294Z,1.73
2023-01-21T19:14:51.867Z,1.76
2023-01-21T19:17:29.235Z,1.84
2023-01-21T19:19:59.958Z,1.84
2023-01-21T19:22:27.631Z,1.79
2023-01-21T19:24:57.718Z,1.78
2023-01-21T19:27:31.564Z,1.79
2023-01-21T19:29:59.258Z,1.76
2023-01-21T19:32:31.898Z,1.75
2023-01-21T19:35:00.845Z,1.73
2023-01-21T19:37:30.793Z,1.72
2023-01-21T19:39:58.381Z,1.67
2023-01-21T19:42:28.614Z,1.68
2023-01-21T19:44:56.911Z,1.68
2023-01-21T19:47:29.553Z,1.59
2023-01-21T19:49:57.346Z,1.61
2023-01-21T19:52:25.093Z,1.66
2023-01-21T19:54:54.939Z,1.65
2023-01-21T19:57:22.915Z,1.65
2023-01-21T19:59:54.518Z,1.65
2023-01-21T20:02:22.192Z,1.64
2023-01-21T20:04:50.856Z,1.62
2023-01-21T20:07:22.156Z,1.62
2023-01-21T20:09:54.238Z,1.61
2023-01-21T20:12:21.867Z,1.60
2023-01-21T20:14:49.425Z,1.54
2023-01-21T20:17:19.165Z,1.55
2023-01-21T20:19:46.739Z,1.53
2023-01-21T20:22:14.398Z,1.54
2023-01-21T20:24:42.042Z,1.50
2023-01-21T20:27:15.007Z,1.49
2023-01-21T20:29:49.571Z,1.51
2023-01-21T20:32:23.095Z,1.49
2023-01-21T20:34:53.088Z,1.47
2023-01-21T20:37:20.753Z,1.49
2023-01-21T20:39:48.350Z,1.46
2023-01-21T20:42:15.920Z,1.46
2023-01-21T20:44:43.495Z,1.46
2023-01-21T20:47:12.275Z,1.45
2023-01-21T20:49:39.929Z,1.47
2023-01-21T20:52:07.557Z,1.47
2023-01-21T20:54:35.175Z,1.48
2023-01-21T20:57:03.831Z,1.47
2023-01-21T20:59:31.474Z,1.48
2023-01-21T21:01:59.095Z,1.50
2023-01-21T21:04:29.130Z,1.47
2023-01-21T21:06:56.862Z,1.47
2023-01-21T21:09:24.465Z,1.48
2023-01-21T21:11:54.550Z,1.51
2023-01-21T21:14:24.305Z,1.49
2023-01-21T21:16:56.425Z,1.49
2023-01-21T21:19:26.406Z,1.48
2023-01-21T21:21:53.987Z,1.50
2023-01-21T21:24:25.379Z,1.52
2023-01-21T21:26:52.942Z,1.54
2023-01-21T21:29:20.562Z,1.53
2023-01-21T21:31:48.482Z,1.52
2023-01-21T21:34:16.213Z,1.55
2023-01-21T21:36:46.144Z,1.55
2023-01-21T21:39:19.128Z,1.51
2023-01-21T21:42:04.837Z,1.58
2023-01-21T21:44:32.492Z,1.57
2023-01-21T21:47:20.098Z,1.61
2023-01-21T21:49:47.704Z,1.60
2023-01-21T21:52:17.736Z,1.61
2023-01-21T21:54:45.667Z,1.63
2023-01-21T21:57:14.453Z,1.62
2023-01-21T21:59:43.474Z,1.63
2023-01-21T22:02:14.120Z,1.65
2023-01-21T22:04:44.381Z,1.65
2023-01-21T22:07:12.187Z,1.67
2023-01-21T22:09:39.857Z,1.69
2023-01-21T22:12:07.671Z,1.68
2023-01-21T22:14:35.287Z,1.71
2023-01-21T22:17:02.984Z,1.72
2023-01-21T22:19:30.660Z,1.72
2023-01-21T22:21:58.316Z,1.74
2023-01-21T22:24:28.588Z,1.75
2023-01-21T22:26:58.669Z,1.77
2023-01-21T22:29:26.317Z,1.79
2023-01-21T22:31:53.953Z,1.81
2023-01-21T22:34:21.582Z,1.81
2023-01-21T22:36:52.718Z,1.81
2023-01-21T22:39:22.588Z,1.81
2023-01-21T22:41:50.192Z,1.81
2023-01-21T22:44:19.035Z,1.82
2023-01-21T22:46:47.852Z,1.84
2023-01-21T22:49:15.559Z,1.80
2023-01-21T22:51:44.171Z,1.83
2023-01-21T22:54:11.793Z,1.87
2023-01-21T22:56:52.179Z,1.87
2023-01-21T22:59:21.037Z,1.90
2023-01-21T23:01:51.161Z,1.92
2023-01-21T23:04:18.938Z,1.90
2023-01-21T23:06:48.640Z,1.89
2023-01-21T23:09:18.758Z,1.91
2023-01-21T23:11:46.514Z,1.92
2023-01-21T23:14:14.174Z,1.93
2023-01-21T23:16:44.501Z,1.92
2023-01-21T23:19:13.472Z,1.91
2023-01-21T23:21:45.640Z,1.91
2023-01-21T23:24:13.912Z,1.93
2023-01-21T23:26:43.878Z,1.92
2023-01-21T23:29:11.571Z,1.93
2023-01-21T23:31:41.736Z,1.95
2023-01-21T23:34:13.884Z,1.98
2023-01-21T23:36:42.249Z,2.00
2023-01-21T23:39:10.915Z,1.98
2023-01-21T23:41:38.514Z,2.00
2023-01-21T23:44:06.142Z,1.99
2023-01-21T23:46:34.867Z,2.02
2023-01-21T23:49:02.611Z,2.04
2023-01-21T23:51:30.209Z,2.05
2023-01-21T23:53:57.848Z,2.04
2023-01-21T23:56:27.886Z,2.05
2023-01-21T23:58:58.371Z,2.06
